createdAt,value
2023-05-18T00:00:11.167Z,10.31
2023-05-18T00:02:39.447Z,10.42
2023-05-18T00:05:08.962Z,10.43
2023-05-18T00:07:37.683Z,10.62
2023-05-18T00:10:06.389Z,10.53
2023-05-18T00:12:34.608Z,10.22
2023-05-18T00:15:02.677Z,10.66
2023-05-18T00:17:32.389Z,10.50
2023-05-18T00:20:01.055Z,10.62
2023-05-18T00:22:30.193Z,10.06
2023-05-18T00:24:58.249Z,10.72
2023-05-18T00:27:26.288Z,11.05
2023-05-18T00:29:54.843Z,10.49
2023-05-18T00:32:22.901Z,10.83
2023-05-18T00:34:54.199Z,10.33
2023-05-18T00:37:24.141Z,10.38
2023-05-18T00:39:52.377Z,10.75
2023-05-18T00:42:20.510Z,10.55
2023-05-18T00:44:48.799Z,10.14
2023-05-18T00:47:18.549Z,9.99
2023-05-18T00:49:46.758Z,9.97
2023-05-18T00:52:16.952Z,9.96
2023-05-18T00:54:45.085Z,9.95
2023-05-18T00:57:13.129Z,9.82
2023-05-18T00:59:42.112Z,9.68
2023-05-18T01:02:12.248Z,9.66
2023-05-18T01:04:41.525Z,9.73
2023-05-18T01:07:10.116Z,9.38
2023-05-18T01:09:40.135Z,9.49
2023-05-18T01:12:16.794Z,9.16
2023-05-18T01:14:53.733Z,9.59
2023-05-18T01:17:33.640Z,9.47
2023-05-18T01:20:16.925Z,9.20
2023-05-18T01:23:10.371Z,9.69
2023-05-18T01:25:51.389Z,9.42
2023-05-18T01:28:22.659Z,9.31
2023-05-18T01:30:51.975Z,9.54
2023-05-18T01:33:20.132Z,9.63
2023-05-18T01:35:49.073Z,9.36
2023-05-18T01:38:18.887Z,9.74
2023-05-18T01:40:56.160Z,9.59
2023-05-18T01:43:32.861Z,9.49
2023-05-18T01:46:11.291Z,9.73
2023-05-18T01:48:45.355Z,9.73
2023-05-18T01:51:16.972Z,9.43
2023-05-18T01:53:47.676Z,9.42
2023-05-18T01:56:16.440Z,9.57
2023-05-18T01:58:46.531Z,9.82
2023-05-18T02:01:16.235Z,9.89
2023-05-18T02:03:45.315Z,10.04
2023-05-18T02:06:13.511Z,9.95
2023-05-18T02:08:41.742Z,10.67
2023-05-18T02:11:09.835Z,10.14
2023-05-18T02:13:37.943Z,10.59
2023-05-18T02:16:08.616Z,10.38
2023-05-18T02:18:36.760Z,10.43
2023-05-18T02:21:05.314Z,9.64
2023-05-18T02:23:34.077Z,9.64
2023-05-18T02:26:02.707Z,10.08
2023-05-18T02:28:30.961Z,10.64
2023-05-18T02:31:08.184Z,9.86
2023-05-18T02:33:40.249Z,9.73
2023-05-18T02:36:10.430Z,9.74
2023-05-18T02:38:39.559Z,10.89
2023-05-18T02:41:09.738Z,10.18
2023-05-18T02:43:38.133Z,9.60
2023-05-18T02:46:07.915Z,9.48
2023-05-18T02:48:36.492Z,9.36
2023-05-18T02:51:04.667Z,9.36
2023-05-18T02:53:33.585Z,9.40
2023-05-18T02:56:08.175Z,9.50
2023-05-18T02:58:45.972Z,9.30
2023-05-18T03:01:34.979Z,9.51
2023-05-18T03:04:03.243Z,9.62
2023-05-18T03:06:31.965Z,9.63
2023-05-18T03:09:00.237Z,9.27
2023-05-18T03:11:35.591Z,9.24
2023-05-18T03:14:03.729Z,9.67
2023-05-18T03:16:33.258Z,9.21
2023-05-18T03:19:02.962Z,9.08
2023-05-18T03:21:36.489Z,9.29
2023-05-18T03:24:05.433Z,9.04
2023-05-18T03:26:36.456Z,10.04
2023-05-18T03:29:05.488Z,9.75
2023-05-18T03:31:35.426Z,9.98
2023-05-18T03:34:04.414Z,10.47
2023-05-18T03:36:32.524Z,9.88
2023-05-18T03:39:00.632Z,9.16
2023-05-18T03:41:30.089Z,9.53
2023-05-18T03:43:58.353Z,9.77
2023-05-18T03:46:26.787Z,9.10
2023-05-18T03:48:56.346Z,9.52
2023-05-18T03:51:31.468Z,9.64
2023-05-18T03:54:01.366Z,9.28
2023-05-18T03:56:31.355Z,10.09
2023-05-18T03:59:00.251Z,9.76
2023-05-18T04:01:30.406Z,10.36
2023-05-18T04:04:00.372Z,10.22
2023-05-18T04:06:28.599Z,9.92
2023-05-18T04:08:56.987Z,9.39
2023-05-18T04:11:26.928Z,10.03
2023-05-18T04:13:55.222Z,10.04
2023-05-18T04:16:23.344Z,9.96
2023-05-18T04:18:53.196Z,10.21
2023-05-18T04:21:23.315Z,10.29
2023-05-18T04:23:51.509Z,10.25
2023-05-18T04:26:20.180Z,10.14
2023-05-18T04:28:48.539Z,10.39
2023-05-18T04:31:17.940Z,10.90
2023-05-18T04:33:46.832Z,10.67
2023-05-18T04:36:15.178Z,11.09
2023-05-18T04:38:44.787Z,11.30
2023-05-18T04:41:13.039Z,10.80
2023-05-18T04:43:41.821Z,10.79
2023-05-18T04:46:10.137Z,10.74
2023-05-18T04:48:38.970Z,10.81
2023-05-18T04:51:07.322Z,11.03
2023-05-18T04:53:35.429Z,11.20
2023-05-18T04:56:05.228Z,11.38
2023-05-18T04:58:35.732Z,11.12
2023-05-18T05:01:03.930Z,11.03
2023-05-18T05:03:32.073Z,10.20
2023-05-18T05:06:00.732Z,10.08
2023-05-18T05:08:28.962Z,10.26
2023-05-18T05:10:57.092Z,10.31
2023-05-18T05:13:26.553Z,9.62
2023-05-18T05:15:55.091Z,10.24
2023-05-18T05:18:23.275Z,10.25
2023-05-18T05:20:51.772Z,9.98
2023-05-18T05:23:20.101Z,10.55
2023-05-18T05:25:48.454Z,10.69
2023-05-18T05:28:16.630Z,10.04
2023-05-18T05:30:46.332Z,10.45
2023-05-18T05:33:14.761Z,10.43
2023-05-18T05:35:45.045Z,9.74
2023-05-18T05:38:13.873Z,10.43
2023-05-18T05:40:41.964Z,10.81
2023-05-18T05:43:10.565Z,10.53
2023-05-18T05:45:38.928Z,10.06
2023-05-18T05:48:13.655Z,9.19
2023-05-18T05:50:42.276Z,10.06
2023-05-18T05:53:11.240Z,10.62
2023-05-18T05:55:42.046Z,10.52
2023-05-18T05:58:15.538Z,10.98
2023-05-18T06:00:48.814Z,11.35
2023-05-18T06:03:18.518Z,10.93
2023-05-18T06:05:47.901Z,11.41
2023-05-18T06:08:18.503Z,11.45
2023-05-18T06:10:48.203Z,11.41
2023-05-18T06:13:17.409Z,11.66
2023-05-18T06:15:53.969Z,11.30
2023-05-18T06:18:24.016Z,11.29
2023-05-18T06:20:54.800Z,11.35
2023-05-18T06:23:23.877Z,11.57
2023-05-18T06:26:12.364Z,10.89
2023-05-18T06:28:52.280Z,10.86
2023-05-18T06:31:28.258Z,11.30
2023-05-18T06:34:19.961Z,11.35
2023-05-18T06:36:48.325Z,11.51
2023-05-18T06:39:17.423Z,11.76
2023-05-18T06:41:45.753Z,11.73
2023-05-18T06:44:21.341Z,11.78
2023-05-18T06:47:15.419Z,10.80
2023-05-18T06:49:45.009Z,11.51
2023-05-18T06:52:13.805Z,11.66
2023-05-18T06:54:43.975Z,11.51
2023-05-18T06:57:12.418Z,10.90
2023-05-18T06:59:40.875Z,11.55
2023-05-18T07:02:09.109Z,12.07
2023-05-18T07:04:37.396Z,11.38
2023-05-18T07:07:07.832Z,11.59
2023-05-18T07:09:37.161Z,12.00
2023-05-18T07:12:05.856Z,11.96
2023-05-18T07:14:33.947Z,12.55
2023-05-18T07:17:02.133Z,11.90
2023-05-18T07:19:30.595Z,12.05
2023-05-18T07:21:59.492Z,12.16
2023-05-18T07:24:30.633Z,12.38
2023-05-18T07:27:00.735Z,12.21
2023-05-18T07:29:29.653Z,12.23
2023-05-18T07:31:57.948Z,12.10
2023-05-18T07:34:27.295Z,12.64
2023-05-18T07:36:55.356Z,12.36
2023-05-18T07:39:28.700Z,11.96
2023-05-18T07:41:58.422Z,12.30
2023-05-18T07:44:26.582Z,12.46
2023-05-18T07:46:54.776Z,12.52
2023-05-18T07:49:23.368Z,12.47
2023-05-18T07:51:51.664Z,12.40
2023-05-18T07:54:20.532Z,12.70
2023-05-18T07:56:48.702Z,12.73
2023-05-18T07:59:18.146Z,12.39
2023-05-18T08:01:46.312Z,12.74
2023-05-18T08:04:14.663Z,12.84
2023-05-18T08:06:42.833Z,12.99
2023-05-18T08:09:11.268Z,13.29
2023-05-18T08:11:39.493Z,13.07
2023-05-18T08:14:07.586Z,13.33
2023-05-18T08:16:37.758Z,13.28
2023-05-18T08:19:06.102Z,13.40
2023-05-18T08:21:34.625Z,13.51
2023-05-18T08:24:03.985Z,13.34
2023-05-18T08:26:32.139Z,13.45
2023-05-18T08:29:00.282Z,13.41
2023-05-18T08:31:28.458Z,13.29
2023-05-18T08:33:58.198Z,13.30
2023-05-18T08:36:26.706Z,13.47
2023-05-18T08:38:55.192Z,11.68
2023-05-18T08:41:30.162Z,12.83
2023-05-18T08:44:03.427Z,12.63
2023-05-18T08:46:36.028Z,12.22
2023-05-18T08:49:06.976Z,12.84
2023-05-18T08:51:36.411Z,13.18
2023-05-18T08:54:06.403Z,13.05
2023-05-18T08:56:35.700Z,12.78
2023-05-18T08:59:08.064Z,11.36
2023-05-18T09:01:37.214Z,11.57
2023-05-18T09:04:07.524Z,11.97
2023-05-18T09:06:36.328Z,12.48
2023-05-18T09:09:06.649Z,12.59
2023-05-18T09:11:35.809Z,12.81
2023-05-18T09:14:04.201Z,12.95
2023-05-18T09:16:32.638Z,12.50
2023-05-18T09:19:01.201Z,12.84
2023-05-18T09:21:32.397Z,12.40
2023-05-18T09:24:01.655Z,12.55
2023-05-18T09:26:29.834Z,12.28
2023-05-18T09:28:59.558Z,12.45
2023-05-18T09:31:27.847Z,12.42
2023-05-18T09:33:56.748Z,12.71
2023-05-18T09:36:29.295Z,12.34
2023-05-18T09:38:58.874Z,12.79
2023-05-18T09:41:28.310Z,12.45
2023-05-18T09:43:56.509Z,12.52
2023-05-18T09:46:24.622Z,12.77
2023-05-18T09:48:54.293Z,13.41
2023-05-18T09:51:25.507Z,13.54
2023-05-18T09:53:59.493Z,13.33
2023-05-18T09:56:28.308Z,13.66
2023-05-18T09:58:56.456Z,13.85
2023-05-18T10:01:24.651Z,13.96
2023-05-18T10:03:53.428Z,14.03
2023-05-18T10:06:22.587Z,13.90
2023-05-18T10:08:50.683Z,13.84
2023-05-18T10:11:21.882Z,14.24
2023-05-18T10:13:55.494Z,14.05
2023-05-18T10:16:25.183Z,14.31
2023-05-18T10:18:55.188Z,13.12
2023-05-18T10:21:28.389Z,13.16
2023-05-18T10:23:56.938Z,12.22
2023-05-18T10:26:29.954Z,11.94
2023-05-18T10:28:59.263Z,11.85
2023-05-18T10:31:31.397Z,11.39
2023-05-18T10:34:00.553Z,12.00
2023-05-18T10:36:31.333Z,11.89
2023-05-18T10:39:02.021Z,11.68
2023-05-18T10:41:33.335Z,10.66
2023-05-18T10:44:04.150Z,10.60
2023-05-18T10:46:33.319Z,10.62
2023-05-18T10:49:02.524Z,10.75
2023-05-18T10:51:32.216Z,11.17
2023-05-18T10:54:13.446Z,10.67
2023-05-18T10:56:45.384Z,11.13
2023-05-18T10:59:15.277Z,10.46
2023-05-18T11:01:44.673Z,10.38
2023-05-18T11:04:13.005Z,11.05
2023-05-18T11:06:41.488Z,10.81
2023-05-18T11:09:09.668Z,11.05
2023-05-18T11:11:56.056Z,11.21
2023-05-18T11:14:28.654Z,12.23
2023-05-18T11:17:17.100Z,11.78
2023-05-18T11:20:13.182Z,12.48
2023-05-18T11:22:43.389Z,12.83
2023-05-18T11:25:31.741Z,12.76
2023-05-18T11:28:04.838Z,13.24
2023-05-18T11:30:50.173Z,13.46
2023-05-18T11:36:13.742Z,13.37
2023-05-18T11:39:04.809Z,13.08
2023-05-18T11:41:35.038Z,13.16
2023-05-18T11:44:22.311Z,12.77
2023-05-18T11:46:55.332Z,12.35
2023-05-18T11:49:25.132Z,12.68
2023-05-18T11:51:58.729Z,12.51
2023-05-18T11:54:27.928Z,12.34
2023-05-18T11:56:56.407Z,12.12
2023-05-18T11:59:37.795Z,12.86
2023-05-18T12:02:06.350Z,12.48
2023-05-18T12:04:37.085Z,12.57
2023-05-18T12:07:08.095Z,13.15
2023-05-18T12:09:36.800Z,12.64
2023-05-18T12:12:05.238Z,12.59
2023-05-18T12:14:36.298Z,12.84
2023-05-18T12:17:05.494Z,13.15
2023-05-18T12:19:39.477Z,13.28
2023-05-18T12:22:09.864Z,13.52
2023-05-18T12:24:38.592Z,13.44
2023-05-18T12:27:08.017Z,12.66
2023-05-18T12:29:39.556Z,12.75
2023-05-18T12:32:09.543Z,13.08
2023-05-18T12:34:38.295Z,13.41
2023-05-18T12:37:07.485Z,13.44
2023-05-18T12:39:36.651Z,12.84
2023-05-18T12:42:12.949Z,13.16
2023-05-18T12:44:44.814Z,13.20
2023-05-18T12:47:13.318Z,12.76
2023-05-18T12:49:42.925Z,12.78
2023-05-18T12:52:12.631Z,12.80
2023-05-18T12:54:55.712Z,12.28
2023-05-18T12:57:27.136Z,12.02
2023-05-18T12:59:56.831Z,11.40
2023-05-18T13:02:33.209Z,11.69
2023-05-18T13:05:04.020Z,11.56
2023-05-18T13:07:32.269Z,11.24
2023-05-18T13:10:06.320Z,10.94
2023-05-18T13:12:40.048Z,10.36
2023-05-18T13:15:14.708Z,10.00
2023-05-18T13:18:00.347Z,10.06
2023-05-18T13:20:35.998Z,10.67
2023-05-18T13:23:06.858Z,10.37
2023-05-18T13:25:35.177Z,10.39
2023-05-18T13:28:03.646Z,10.22
2023-05-18T13:30:33.758Z,10.84
2023-05-18T13:33:02.015Z,10.72
2023-05-18T13:35:30.420Z,10.63
2023-05-18T13:37:58.737Z,10.60
2023-05-18T13:40:26.885Z,10.22
2023-05-18T13:42:55.056Z,10.55
2023-05-18T13:45:23.345Z,10.70
2023-05-18T13:47:53.758Z,9.94
2023-05-18T13:50:23.294Z,10.66
2023-05-18T13:52:51.453Z,10.45
2023-05-18T13:55:19.790Z,10.13
2023-05-18T13:57:47.867Z,10.61
2023-05-18T14:00:17.426Z,10.47
2023-05-18T14:02:46.298Z,11.69
2023-05-18T14:05:16.480Z,10.71
2023-05-18T14:07:45.191Z,11.29
2023-05-18T14:10:14.573Z,12.15
2023-05-18T14:12:43.529Z,12.49
2023-05-18T14:15:14.044Z,12.29
2023-05-18T14:17:43.700Z,10.98
2023-05-18T14:20:12.848Z,10.59
2023-05-18T14:22:42.420Z,11.43
2023-05-18T14:25:10.972Z,11.91
2023-05-18T14:27:39.064Z,11.15
2023-05-18T14:30:08.535Z,12.22
2023-05-18T14:32:37.003Z,12.04
2023-05-18T14:35:05.930Z,12.23
2023-05-18T14:37:34.116Z,11.21
2023-05-18T14:40:05.958Z,11.34
2023-05-18T14:42:34.295Z,11.86
2023-05-18T14:45:02.305Z,11.40
2023-05-18T14:47:30.482Z,12.21
2023-05-18T14:49:58.587Z,11.62
2023-05-18T14:52:26.788Z,11.74
2023-05-18T14:54:54.792Z,12.09
2023-05-18T14:57:26.517Z,12.44
2023-05-18T14:59:55.066Z,12.88
2023-05-18T15:02:23.227Z,12.45
2023-05-18T15:04:51.367Z,10.98
2023-05-18T15:07:19.511Z,10.96
2023-05-18T15:09:47.700Z,11.23
2023-05-18T15:12:17.178Z,11.23
2023-05-18T15:14:46.741Z,11.71
2023-05-18T15:17:15.230Z,12.21
2023-05-18T15:19:43.375Z,12.51
2023-05-18T15:22:11.452Z,11.65
2023-05-18T15:24:39.646Z,11.55
2023-05-18T15:27:08.887Z,12.31
2023-05-18T15:29:37.011Z,10.84
2023-05-18T15:32:07.516Z,11.03
2023-05-18T15:34:35.886Z,12.07
2023-05-18T15:37:03.892Z,11.77
2023-05-18T15:39:32.409Z,12.16
2023-05-18T15:42:00.497Z,11.45
2023-05-18T15:44:29.709Z,12.31
2023-05-18T15:46:58.285Z,12.29
2023-05-18T15:49:27.834Z,11.98
2023-05-18T15:51:55.902Z,12.04
2023-05-18T15:54:24.085Z,11.77
2023-05-18T15:56:52.208Z,12.58
2023-05-18T15:59:20.430Z,12.10
2023-05-18T16:01:48.762Z,11.87
2023-05-18T16:04:16.924Z,11.60
2023-05-18T16:06:46.756Z,12.49
2023-05-18T16:09:16.365Z,11.55
2023-05-18T16:11:44.605Z,11.66
2023-05-18T16:14:12.682Z,10.76
2023-05-18T16:16:41.120Z,11.04
2023-05-18T16:19:10.018Z,11.45
2023-05-18T16:21:38.456Z,10.94
2023-05-18T16:24:08.438Z,11.05
2023-05-18T16:26:39.775Z,10.95
2023-05-18T16:29:08.374Z,11.90
2023-05-18T16:31:37.331Z,12.09
2023-05-18T16:34:05.717Z,11.61
2023-05-18T16:36:33.878Z,11.69
2023-05-18T16:39:03.009Z,11.93
2023-05-18T16:41:32.501Z,11.16
2023-05-18T16:44:00.655Z,11.90
2023-05-18T16:46:29.087Z,11.00
2023-05-18T16:48:57.425Z,11.21
2023-05-18T16:51:27.349Z,11.27
2023-05-18T16:53:55.773Z,11.29
2023-05-18T16:56:25.550Z,11.97
2023-05-18T16:58:55.052Z,12.03
2023-05-18T17:01:28.615Z,11.36
2023-05-18T17:03:57.485Z,11.09
2023-05-18T17:06:26.664Z,11.37
2023-05-18T17:08:58.178Z,11.14
2023-05-18T17:11:27.922Z,11.38
2023-05-18T17:13:59.934Z,10.76
2023-05-18T17:16:28.593Z,11.84
2023-05-18T17:18:57.816Z,11.58
2023-05-18T17:21:28.430Z,11.98
2023-05-18T17:23:56.772Z,11.98
2023-05-18T17:26:26.216Z,12.41
2023-05-18T17:28:54.386Z,12.11
2023-05-18T17:31:23.983Z,12.10
2023-05-18T17:33:52.335Z,12.12
2023-05-18T17:36:20.445Z,12.32
2023-05-18T17:38:48.597Z,11.92
2023-05-18T17:41:16.798Z,12.05
2023-05-18T17:43:44.829Z,12.01
2023-05-18T17:46:13.078Z,12.01
2023-05-18T17:48:42.732Z,12.49
2023-05-18T17:51:10.790Z,12.46
2023-05-18T17:53:42.094Z,12.29
2023-05-18T17:56:18.984Z,12.24
2023-05-18T17:58:48.510Z,12.19
2023-05-18T18:01:16.614Z,12.23
2023-05-18T18:03:46.206Z,12.13
2023-05-18T18:06:14.574Z,12.24
2023-05-18T18:08:43.031Z,12.20
2023-05-18T18:11:11.210Z,11.75
2023-05-18T18:13:39.365Z,12.08
2023-05-18T18:16:07.832Z,12.14
2023-05-18T18:18:37.571Z,12.28
2023-05-18T18:21:07.756Z,12.14
2023-05-18T18:23:36.654Z,12.38
2023-05-18T18:26:06.687Z,12.30
2023-05-18T18:28:36.125Z,12.43
2023-05-18T18:31:05.062Z,12.46
2023-05-18T18:33:33.729Z,12.37
2023-05-18T18:36:02.369Z,12.32
2023-05-18T18:38:34.041Z,12.44
2023-05-18T18:41:05.064Z,12.49
2023-05-18T18:43:35.212Z,12.50
2023-05-18T18:46:04.070Z,12.66
2023-05-18T18:48:32.276Z,12.44
2023-05-18T18:51:00.474Z,12.70
2023-05-18T18:53:28.724Z,12.68
2023-05-18T18:55:59.796Z,12.70
2023-05-18T18:58:28.123Z,12.73
2023-05-18T19:00:56.348Z,12.70
2023-05-18T19:03:24.411Z,12.74
2023-05-18T19:05:52.530Z,12.72
2023-05-18T19:08:20.605Z,12.66
2023-05-18T19:10:48.709Z,12.83
2023-05-18T19:13:18.145Z,12.69
2023-05-18T19:15:47.298Z,12.82
2023-05-18T19:18:15.604Z,12.80
2023-05-18T19:20:43.727Z,12.73
2023-05-18T19:23:11.845Z,12.83
2023-05-18T19:25:39.911Z,12.81
2023-05-18T19:28:08.015Z,12.90
2023-05-18T19:30:37.559Z,12.99
2023-05-18T19:33:05.687Z,12.85
2023-05-18T19:35:34.175Z,12.93
2023-05-18T19:38:03.205Z,12.97
2023-05-18T19:40:31.401Z,12.92
2023-05-18T19:42:59.993Z,12.70
2023-05-18T19:45:28.235Z,12.67
2023-05-18T19:47:58.281Z,12.73
2023-05-18T19:50:26.426Z,12.87
2023-05-18T19:52:54.591Z,12.85
2023-05-18T19:55:22.731Z,12.90
2023-05-18T19:57:50.856Z,12.95
2023-05-18T20:00:19.115Z,12.98
2023-05-18T20:02:47.255Z,12.96
2023-05-18T20:05:18.930Z,12.88
2023-05-18T20:07:47.243Z,13.00
2023-05-18T20:10:15.484Z,13.01
2023-05-18T20:12:43.575Z,13.05
2023-05-18T20:15:12.159Z,12.95
2023-05-18T20:17:40.307Z,12.94
2023-05-18T20:20:09.974Z,12.91
2023-05-18T20:22:40.116Z,12.97
2023-05-18T20:25:09.420Z,13.00
2023-05-18T20:27:38.030Z,12.89
2023-05-18T20:30:07.102Z,12.88
2023-05-18T20:32:35.295Z,12.94
2023-05-18T20:35:03.305Z,12.97
2023-05-18T20:37:34.164Z,12.90
2023-05-18T20:40:09.064Z,12.90
2023-05-18T20:42:40.678Z,13.04
2023-05-18T20:45:09.499Z,12.91
2023-05-18T20:47:37.707Z,12.84
2023-05-18T20:50:06.558Z,12.86
2023-05-18T20:52:34.672Z,13.00
2023-05-18T20:55:04.054Z,12.94
2023-05-18T20:57:32.171Z,12.90
2023-05-18T21:00:00.294Z,12.94
2023-05-18T21:02:28.477Z,12.95
2023-05-18T21:04:57.912Z,13.04
2023-05-18T21:07:26.363Z,13.21
2023-05-18T21:09:54.484Z,13.23
2023-05-18T21:12:23.992Z,13.39
2023-05-18T21:14:52.135Z,13.16
2023-05-18T21:17:21.229Z,12.88
2023-05-18T21:19:50.660Z,13.02
2023-05-18T21:22:19.085Z,12.97
2023-05-18T21:24:47.165Z,12.89
2023-05-18T21:27:15.265Z,12.81
2023-05-18T21:29:44.736Z,12.89
2023-05-18T21:32:12.903Z,12.80
2023-05-18T21:34:43.451Z,12.82
2023-05-18T21:37:12.001Z,12.71
2023-05-18T21:39:42.162Z,12.49
2023-05-18T21:42:10.348Z,12.71
2023-05-18T21:44:38.496Z,12.56
2023-05-18T21:47:08.108Z,12.74
2023-05-18T21:49:36.257Z,12.52
2023-05-18T21:52:04.735Z,12.52
2023-05-18T21:54:33.594Z,12.55
2023-05-18T21:57:01.744Z,12.61
2023-05-18T21:59:29.878Z,12.74
2023-05-18T22:01:58.022Z,12.53
2023-05-18T22:04:27.484Z,12.47
2023-05-18T22:06:55.562Z,12.44
2023-05-18T22:09:23.759Z,12.69
2023-05-18T22:11:51.897Z,12.77
2023-05-18T22:14:20.105Z,12.74
2023-05-18T22:16:48.403Z,13.13
2023-05-18T22:19:16.457Z,12.97
2023-05-18T22:21:46.002Z,12.85
2023-05-18T22:24:14.100Z,12.65
2023-05-18T22:26:43.038Z,12.71
2023-05-18T22:29:11.523Z,12.53
2023-05-18T22:31:39.687Z,12.61
2023-05-18T22:34:07.771Z,12.84
2023-05-18T22:36:36.350Z,12.99
2023-05-18T22:39:05.819Z,13.09
2023-05-18T22:41:33.956Z,12.97
2023-05-18T22:44:02.028Z,12.56
2023-05-18T22:46:30.508Z,12.58
2023-05-18T22:48:59.235Z,12.52
2023-05-18T22:51:28.372Z,12.56
2023-05-18T22:53:56.760Z,11.63
2023-05-18T22:56:26.906Z,12.21
2023-05-18T22:58:55.332Z,12.49
2023-05-18T23:01:23.507Z,12.58
2023-05-18T23:03:51.606Z,12.54
2023-05-18T23:06:22.492Z,12.45
2023-05-18T23:08:52.297Z,12.26
2023-05-18T23:11:20.416Z,12.54
2023-05-18T23:13:51.312Z,12.58
2023-05-18T23:16:20.640Z,12.67
2023-05-18T23:18:50.643Z,12.67
2023-05-18T23:21:18.854Z,12.58
2023-05-18T23:23:47.057Z,12.49
2023-05-18T23:26:15.167Z,12.44
2023-05-18T23:28:43.284Z,12.38
2023-05-18T23:31:12.703Z,12.52
2023-05-18T23:33:41.331Z,12.47
2023-05-18T23:36:09.990Z,12.27
2023-05-18T23:38:41.019Z,12.22
2023-05-18T23:41:09.983Z,12.35
2023-05-18T23:43:38.719Z,12.22
2023-05-18T23:46:07.921Z,12.32
2023-05-18T23:48:38.390Z,12.23
2023-05-18T23:51:09.153Z,12.26
2023-05-18T23:53:38.193Z,12.34
2023-05-18T23:56:07.815Z,11.88
2023-05-18T23:58:36.415Z,11.46
